Time;durP1;ratioP1;P1;durP2;ratioP2;P2;SDS_P1;SDS_P2;PMS_P1;PMS_P2;Temp;Humidity;BMP_temperature;BMP_pressure;BME280_temperature;BME280_humidity;BME280_pressure;Samples;Min_cycle;Max_cycle;Signal;HPM_P1;HPM_P2
2023/10/20 00:00:33;;;;;;;;;;;20.00;78.90;;;;;;5001102;28;89228;-68
2023/10/20 00:02:58;;;;;;;;;;;20.00;79.10;;;;;;5002219;22;89892;-39
2023/10/20 00:05:24;;;;;;;;;;;20.00;78.90;;;;;;4997502;28;90018;-39
2023/10/20 00:07:50;;;;;;;;;;;20.00;78.90;;;;;;4991200;28;91360;-38
2023/10/20 00:10:16;;;;;;;;;;;20.00;79.00;;;;;;4993042;28;90200;-38
2023/10/20 00:12:42;;;;;;;;;;;20.00;78.90;;;;;;4986866;28;90451;-38
2023/10/20 00:15:13;;;;;;;;;;;19.90;79.00;;;;;;4993281;28;89848;-38
2023/10/20 00:17:42;;;;;;;;;;;20.00;79.00;;;;;;4995517;28;90411;-39
2023/10/20 00:20:09;;;;;;;;;;;20.00;78.90;;;;;;4996105;28;90704;-38
2023/10/20 00:22:35;;;;;;;;;;;20.00;78.90;;;;;;4996844;28;89532;-38
2023/10/20 00:25:00;;;;;;;;;;;20.00;78.90;;;;;;5003900;28;88848;-38
2023/10/20 00:27:26;;;;;;;;;;;20.00;78.90;;;;;;4998010;28;89537;-39
2023/10/20 00:29:51;;;;;;;;;;;20.00;78.90;;;;;;4999211;28;89594;-38
2023/10/20 00:32:19;;;;;;;;;;;20.00;78.80;;;;;;5002456;28;90407;-38
2023/10/20 00:34:44;;;;;;;;;;;19.90;78.70;;;;;;5001659;28;91645;-41
2023/10/20 00:37:10;;;;;;;;;;;20.00;78.70;;;;;;5001704;28;89194;-37
2023/10/20 00:39:36;;;;;;;;;;;20.00;78.80;;;;;;4999096;28;90518;-38
2023/10/20 00:42:02;;;;;;;;;;;20.00;78.90;;;;;;5002334;28;89536;-38
2023/10/20 00:44:28;;;;;;;;;;;19.90;78.80;;;;;;4996655;28;89603;-38
2023/10/20 00:46:53;;;;;;;;;;;20.00;78.90;;;;;;4997811;28;90221;-39
2023/10/20 00:49:19;;;;;;;;;;;19.90;79.00;;;;;;5001196;28;89603;-38
2023/10/20 00:51:45;;;;;;;;;;;19.90;78.90;;;;;;5002536;28;89272;-39
2023/10/20 00:54:13;;;;;;;;;;;19.90;79.00;;;;;;5005955;28;89833;-39
2023/10/20 00:56:45;;;;;;;;;;;19.90;78.80;;;;;;5003077;28;91000;-43
2023/10/20 00:59:11;;;;;;;;;;;19.90;78.80;;;;;;5003058;28;89430;-40
2023/10/20 01:01:37;;;;;;;;;;;19.90;78.90;;;;;;4997703;28;91476;-41
2023/10/20 01:04:03;;;;;;;;;;;19.90;78.90;;;;;;4999307;28;89625;-38
2023/10/20 01:06:29;;;;;;;;;;;19.90;78.80;;;;;;4994698;28;91250;-39
2023/10/20 01:08:55;;;;;;;;;;;19.90;78.90;;;;;;4990987;28;90625;-40
2023/10/20 01:11:21;;;;;;;;;;;19.90;78.90;;;;;;5000268;28;92400;-41
2023/10/20 01:13:46;;;;;;;;;;;19.90;78.90;;;;;;5001083;28;91071;-41
2023/10/20 01:16:12;;;;;;;;;;;19.90;78.80;;;;;;5000801;28;90471;-42
2023/10/20 01:18:38;;;;;;;;;;;19.90;78.70;;;;;;4987279;28;89885;-44
2023/10/20 01:21:04;;;;;;;;;;;19.90;78.70;;;;;;4997123;28;92391;-40
2023/10/20 01:23:30;;;;;;;;;;;19.90;78.80;;;;;;4996772;28;91269;-42
2023/10/20 01:25:56;;;;;;;;;;;19.90;78.80;;;;;;5001840;28;89580;-44
2023/10/20 01:28:22;;;;;;;;;;;19.90;78.80;;;;;;4990865;28;89589;-39
2023/10/20 01:30:47;;;;;;;;;;;19.90;78.80;;;;;;5000829;28;89570;-43
2023/10/20 01:33:13;;;;;;;;;;;19.90;78.80;;;;;;4990739;28;89672;-42
2023/10/20 01:35:39;;;;;;;;;;;19.90;78.80;;;;;;4989028;28;89783;-44
2023/10/20 01:38:04;;;;;;;;;;;19.90;78.80;;;;;;4994832;28;88349;-43
2023/10/20 01:40:30;;;;;;;;;;;19.90;79.00;;;;;;5002735;28;88978;-41
2023/10/20 01:42:55;;;;;;;;;;;19.90;78.80;;;;;;4996540;28;89206;-40
2023/10/20 01:45:21;;;;;;;;;;;19.90;78.80;;;;;;4993348;28;90983;-40
2023/10/20 01:47:47;;;;;;;;;;;19.90;78.80;;;;;;4996025;28;89435;-40
2023/10/20 01:50:12;;;;;;;;;;;19.90;78.80;;;;;;4991083;28;89420;-39
2023/10/20 01:52:38;;;;;;;;;;;19.90;78.80;;;;;;4999605;28;88851;-39
2023/10/20 01:55:04;;;;;;;;;;;19.80;78.80;;;;;;4997697;28;89852;-41
2023/10/20 01:57:29;;;;;;;;;;;19.80;78.90;;;;;;4996159;28;89598;-40
2023/10/20 01:59:55;;;;;;;;;;;19.80;78.90;;;;;;5001794;28;89487;-42
2023/10/20 02:02:20;;;;;;;;;;;19.80;79.00;;;;;;5000598;28;88504;-39
2023/10/20 02:04:46;;;;;;;;;;;19.80;78.90;;;;;;4998222;28;89237;-40
2023/10/20 02:07:12;;;;;;;;;;;19.80;78.80;;;;;;4976927;28;89597;-39
2023/10/20 02:09:37;;;;;;;;;;;19.80;78.90;;;;;;4997648;28;89819;-40
2023/10/20 02:12:04;;;;;;;;;;;19.80;78.90;;;;;;4992018;28;89235;-42
2023/10/20 02:14:30;;;;;;;;;;;19.80;78.80;;;;;;4990036;28;89813;-41
2023/10/20 02:16:56;;;;;;;;;;;19.80;78.80;;;;;;4998641;28;88558;-39
2023/10/20 02:19:22;;;;;;;;;;;19.80;78.80;;;;;;4996272;28;89369;-39
2023/10/20 02:21:47;;;;;;;;;;;19.80;78.80;;;;;;4997320;28;89435;-39
2023/10/20 02:24:13;;;;;;;;;;;19.80;78.80;;;;;;4997476;28;91758;-41
2023/10/20 02:26:38;;;;;;;;;;;19.80;78.80;;;;;;4993331;28;89725;-42
2023/10/20 02:29:04;;;;;;;;;;;19.80;78.80;;;;;;4995702;28;89541;-38
2023/10/20 02:31:29;;;;;;;;;;;19.80;78.80;;;;;;4993153;28;89790;-38
2023/10/20 02:33:55;;;;;;;;;;;19.80;78.80;;;;;;4997567;28;90897;-39
2023/10/20 02:36:21;;;;;;;;;;;19.80;78.90;;;;;;4987191;28;91574;-39
2023/10/20 02:38:47;;;;;;;;;;;19.80;78.80;;;;;;5000111;28;90096;-42
2023/10/20 02:41:14;;;;;;;;;;;19.80;78.80;;;;;;4993458;28;89740;-39
2023/10/20 02:43:40;;;;;;;;;;;19.80;78.80;;;;;;4994191;28;90096;-40
2023/10/20 02:46:06;;;;;;;;;;;19.80;78.80;;;;;;4992655;28;89156;-40
2023/10/20 02:48:32;;;;;;;;;;;19.80;78.80;;;;;;4987543;28;89537;-41
2023/10/20 02:50:58;;;;;;;;;;;19.80;78.80;;;;;;4993107;28;92413;-40
2023/10/20 02:53:24;;;;;;;;;;;19.80;78.80;;;;;;4996795;28;89680;-41
2023/10/20 02:55:49;;;;;;;;;;;19.80;78.70;;;;;;4997794;28;89678;-39
2023/10/20 02:58:15;;;;;;;;;;;19.80;78.80;;;;;;5014780;22;90244;-83
2023/10/20 03:00:42;;;;;;;;;;;19.80;78.80;;;;;;5017259;28;89537;-84
2023/10/20 03:03:08;;;;;;;;;;;19.80;78.90;;;;;;5005843;28;90063;-84
2023/10/20 03:05:34;;;;;;;;;;;19.80;78.90;;;;;;5002321;28;90935;-84
2023/10/20 03:07:59;;;;;;;;;;;19.80;78.80;;;;;;5007869;28;88734;-84
2023/10/20 03:10:25;;;;;;;;;;;19.80;78.80;;;;;;5005080;28;89472;-85
2023/10/20 03:12:51;;;;;;;;;;;19.80;78.80;;;;;;5005782;28;91089;-84
2023/10/20 03:15:16;;;;;;;;;;;19.80;78.90;;;;;;5002734;28;88953;-84
2023/10/20 03:17:42;;;;;;;;;;;19.80;79.70;;;;;;5008552;28;89220;-85
2023/10/20 03:20:14;;;;;;;;;;;19.80;79.00;;;;;;5006722;28;89602;-85
2023/10/20 03:22:46;;;;;;;;;;;19.80;79.00;;;;;;5000223;28;92949;-85
2023/10/20 03:25:12;;;;;;;;;;;19.80;78.90;;;;;;5003341;28;90302;-85
2023/10/20 03:27:37;;;;;;;;;;;19.80;78.90;;;;;;4987003;28;89269;-85
2023/10/20 03:30:05;;;;;;;;;;;19.80;79.00;;;;;;4989380;28;89109;-85
2023/10/20 03:32:31;;;;;;;;;;;19.70;79.00;;;;;;5001636;28;90738;-85
2023/10/20 03:34:56;;;;;;;;;;;19.70;79.10;;;;;;4993738;28;92075;-85
2023/10/20 03:37:22;;;;;;;;;;;19.70;79.10;;;;;;5004149;28;88724;-85
2023/10/20 03:39:47;;;;;;;;;;;19.80;79.10;;;;;;5009382;28;87948;-85
2023/10/20 03:42:13;;;;;;;;;;;19.70;79.00;;;;;;5001649;28;89367;-85
2023/10/20 03:44:39;;;;;;;;;;;19.70;79.00;;;;;;4990254;28;91532;-85
2023/10/20 03:47:05;;;;;;;;;;;19.70;79.20;;;;;;5005596;28;91735;-86
2023/10/20 03:49:34;;;;;;;;;;;19.70;79.00;;;;;;4992329;28;89319;-86
2023/10/20 03:52:00;;;;;;;;;;;19.70;79.00;;;;;;4992401;28;92541;-85
2023/10/20 03:54:25;;;;;;;;;;;19.70;79.20;;;;;;5004858;28;89383;-85
2023/10/20 03:56:51;;;;;;;;;;;19.70;79.20;;;;;;4985940;28;89091;-86
2023/10/20 03:59:17;;;;;;;;;;;19.70;79.10;;;;;;5025664;27;88784;-85
2023/10/20 04:01:42;;;;;;;;;;;19.70;79.00;;;;;;5029206;27;89709;-86
2023/10/20 04:04:09;;;;;;;;;;;19.70;79.00;;;;;;5026047;27;88459;-85
2023/10/20 04:06:36;;;;;;;;;;;19.70;79.00;;;;;;5015951;28;89298;-85
2023/10/20 04:09:07;;;;;;;;;;;19.70;79.00;;;;;;5026238;27;89251;-85
2023/10/20 04:11:34;;;;;;;;;;;19.70;79.10;;;;;;5024383;27;91492;-86
2023/10/20 04:14:00;;;;;;;;;;;19.70;79.20;;;;;;5025165;27;91905;-86
2023/10/20 04:16:27;;;;;;;;;;;19.70;79.20;;;;;;5024225;27;89613;-86
2023/10/20 04:18:53;;;;;;;;;;;19.70;79.10;;;;;;5008312;28;89377;-86
2023/10/20 04:21:18;;;;;;;;;;;19.70;79.30;;;;;;5028938;27;89307;-86
2023/10/20 04:23:44;;;;;;;;;;;19.70;79.20;;;;;;5024409;27;88845;-86
2023/10/20 04:26:20;;;;;;;;;;;19.70;79.20;;;;;;5029215;27;89595;-86
2023/10/20 04:28:47;;;;;;;;;;;19.70;79.30;;;;;;5033164;27;89440;-86
2023/10/20 04:50:35;;;;;;;;;;;19.70;79.20;;;;;;5024252;27;90033;-82
2023/10/20 04:58:34;;;;;;;;;;;19.70;79.20;;;;;;5029535;28;89416;-84
2023/10/20 05:01:28;;;;;;;;;;;19.70;79.30;;;;;;5031759;27;88644;-84
2023/10/20 05:03:53;;;;;;;;;;;19.70;79.30;;;;;;5050623;27;90922;-85
2023/10/20 05:06:32;;;;;;;;;;;19.70;79.30;;;;;;5053773;27;90112;-85
2023/10/20 05:08:57;;;;;;;;;;;19.60;79.30;;;;;;5033149;28;88697;-84
2023/10/20 05:11:24;;;;;;;;;;;19.70;79.20;;;;;;5034464;28;88798;-87
2023/10/20 05:13:49;;;;;;;;;;;19.70;79.40;;;;;;5036639;27;89168;-87
2023/10/20 05:16:15;;;;;;;;;;;19.60;79.70;;;;;;5032845;27;89367;-88
2023/10/20 05:18:42;;;;;;;;;;;19.60;79.70;;;;;;5026023;27;89672;-86
2023/10/20 05:21:12;;;;;;;;;;;19.60;80.00;;;;;;5001988;28;88475;-79
2023/10/20 05:23:37;;;;;;;;;;;19.60;80.30;;;;;;5023622;28;89418;-77
2023/10/20 05:26:03;;;;;;;;;;;19.60;80.50;;;;;;5034386;27;88921;-77
2023/10/20 05:28:29;;;;;;;;;;;19.60;80.60;;;;;;5025652;27;90494;-78
2023/10/20 05:30:55;;;;;;;;;;;19.60;80.40;;;;;;5026135;27;89578;-79
2023/10/20 05:33:21;;;;;;;;;;;19.60;80.40;;;;;;5027198;27;90614;-78
2023/10/20 05:35:46;;;;;;;;;;;19.70;80.40;;;;;;5023427;27;90193;-79
2023/10/20 05:38:12;;;;;;;;;;;19.70;80.30;;;;;;5024603;28;90222;-77
2023/10/20 05:40:37;;;;;;;;;;;19.70;80.60;;;;;;5023798;27;89776;-79
2023/10/20 05:43:05;;;;;;;;;;;19.60;80.50;;;;;;5021896;27;91074;-79
2023/10/20 05:45:40;;;;;;;;;;;19.60;80.50;;;;;;5022185;27;89105;-77
2023/10/20 05:48:06;;;;;;;;;;;19.70;80.70;;;;;;5026170;27;89494;-78
2023/10/20 05:50:38;;;;;;;;;;;19.60;80.60;;;;;;5006448;27;93789;-79
2023/10/20 05:53:04;;;;;;;;;;;19.60;81.00;;;;;;5020103;28;91116;-78
2023/10/20 05:55:30;;;;;;;;;;;19.60;80.90;;;;;;5022803;27;90781;-79
2023/10/20 05:57:56;;;;;;;;;;;19.60;80.90;;;;;;5011985;28;89279;-78
2023/10/20 06:00:21;;;;;;;;;;;19.60;80.70;;;;;;5004969;28;90051;-78
2023/10/20 06:02:47;;;;;;;;;;;19.70;80.60;;;;;;5021599;27;89479;-79
2023/10/20 06:05:13;;;;;;;;;;;19.60;80.40;;;;;;5019604;27;90968;-80
2023/10/20 06:07:41;;;;;;;;;;;19.60;80.50;;;;;;5028972;27;89175;-78
2023/10/20 06:10:08;;;;;;;;;;;19.60;80.60;;;;;;5022159;27;89795;-78
2023/10/20 06:12:33;;;;;;;;;;;19.60;81.00;;;;;;5025675;27;90546;-78
2023/10/20 06:14:59;;;;;;;;;;;19.60;81.00;;;;;;5006992;27;93280;-79
2023/10/20 06:17:25;;;;;;;;;;;19.60;81.10;;;;;;5025862;27;90000;-78
2023/10/20 06:19:50;;;;;;;;;;;19.50;81.30;;;;;;5030195;27;90824;-79
2023/10/20 06:22:16;;;;;;;;;;;19.60;81.40;;;;;;5006258;27;93579;-78
2023/10/20 06:24:41;;;;;;;;;;;19.60;81.30;;;;;;5023649;27;89364;-78
2023/10/20 06:27:07;;;;;;;;;;;19.60;81.30;;;;;;5023004;27;92666;-78
2023/10/20 06:32:08;;;;;;;;;;;19.60;81.40;;;;;;5024526;27;90983;-81
2023/10/20 06:34:35;;;;;;;;;;;19.60;81.30;;;;;;5002312;28;92353;-78
2023/10/20 06:37:08;;;;;;;;;;;19.70;81.20;;;;;;5023595;27;89573;-79
2023/10/20 06:39:37;;;;;;;;;;;19.60;81.20;;;;;;5029971;27;89168;-82
2023/10/20 06:42:03;;;;;;;;;;;19.60;81.60;;;;;;5027052;27;91090;-81
2023/10/20 06:44:30;;;;;;;;;;;19.60;81.30;;;;;;5010232;28;92570;-81
2023/10/20 06:46:56;;;;;;;;;;;19.60;81.10;;;;;;5026138;27;89499;-80
2023/10/20 06:49:23;;;;;;;;;;;19.60;80.90;;;;;;5028174;27;89450;-82
2023/10/20 06:51:49;;;;;;;;;;;19.60;80.90;;;;;;5025612;27;89759;-81
2023/10/20 06:54:15;;;;;;;;;;;19.60;80.80;;;;;;5023867;27;89476;-80
2023/10/20 06:56:40;;;;;;;;;;;19.60;80.90;;;;;;5011064;27;89258;-82
2023/10/20 06:59:06;;;;;;;;;;;19.60;80.80;;;;;;5030591;28;88889;-81
2023/10/20 07:01:36;;;;;;;;;;;19.60;81.10;;;;;;5025305;28;75289;-86
2023/10/20 07:04:01;;;;;;;;;;;19.60;81.20;;;;;;5050993;27;76618;-85
2023/10/20 07:06:28;;;;;;;;;;;19.60;81.10;;;;;;5050136;27;81107;-85
2023/10/20 07:08:53;;;;;;;;;;;19.60;81.10;;;;;;5032996;28;75945;-85
2023/10/20 07:11:19;;;;;;;;;;;19.60;81.20;;;;;;5057759;27;74685;-85
2023/10/20 07:13:44;;;;;;;;;;;19.60;81.10;;;;;;5073772;28;73780;-82
2023/10/20 07:16:12;;;;;;;;;;;19.60;81.00;;;;;;5059426;28;73178;-83
2023/10/20 07:18:38;;;;;;;;;;;19.60;81.10;;;;;;5066882;28;75676;-82
2023/10/20 07:21:03;;;;;;;;;;;19.60;81.20;;;;;;5051145;27;74718;-82
2023/10/20 07:23:29;;;;;;;;;;;19.60;81.00;;;;;;5050855;27;76751;-82
2023/10/20 07:25:54;;;;;;;;;;;19.60;81.10;;;;;;5041978;28;71641;-82
2023/10/20 07:28:20;;;;;;;;;;;19.60;80.90;;;;;;5045277;27;71250;-82
2023/10/20 07:30:45;;;;;;;;;;;19.60;81.00;;;;;;5039151;27;79340;-81
2023/10/20 07:33:11;;;;;;;;;;;19.50;80.90;;;;;;5044505;27;72626;-82
2023/10/20 07:35:37;;;;;;;;;;;19.60;80.90;;;;;;5040957;27;78202;-82
2023/10/20 07:38:04;;;;;;;;;;;19.60;80.80;;;;;;5046011;27;75563;-81
2023/10/20 07:40:34;;;;;;;;;;;19.60;80.90;;;;;;5024858;28;77876;-82
2023/10/20 07:43:06;;;;;;;;;;;19.60;80.80;;;;;;5047193;27;74840;-82
2023/10/20 07:45:40;;;;;;;;;;;19.60;80.80;;;;;;5037025;27;74733;-81
2023/10/20 07:48:06;;;;;;;;;;;19.60;80.80;;;;;;5047731;27;76993;-80
2023/10/20 07:50:31;;;;;;;;;;;19.60;80.80;;;;;;5039153;27;80063;-86
2023/10/20 07:52:57;;;;;;;;;;;19.60;80.80;;;;;;5024347;28;72382;-79
2023/10/20 07:55:22;;;;;;;;;;;19.60;80.80;;;;;;5026909;28;78766;-79
2023/10/20 07:57:48;;;;;;;;;;;19.60;83.00;;;;;;5040825;27;77517;-78
2023/10/20 08:00:14;;;;;;;;;;;19.60;82.50;;;;;;5021785;28;80818;-78
2023/10/20 08:02:39;;;;;;;;;;;19.60;82.50;;;;;;5025614;28;75174;-78
2023/10/20 08:05:05;;;;;;;;;;;19.60;82.70;;;;;;5045138;27;74634;-78
2023/10/20 08:07:31;;;;;;;;;;;19.60;82.60;;;;;;5038493;27;74449;-79
2023/10/20 08:09:56;;;;;;;;;;;19.70;82.60;;;;;;5024820;28;77681;-77
2023/10/20 08:12:22;;;;;;;;;;;19.60;82.10;;;;;;5043797;27;76507;-81
2023/10/20 08:14:49;;;;;;;;;;;19.60;82.10;;;;;;5029346;27;76581;-80
2023/10/20 08:17:14;;;;;;;;;;;19.60;82.90;;;;;;5033514;27;75862;-78
2023/10/20 08:19:44;;;;;;;;;;;19.60;83.80;;;;;;5041158;27;80060;-78
2023/10/20 08:22:09;;;;;;;;;;;19.70;84.40;;;;;;5040991;27;74618;-77
2023/10/20 08:24:35;;;;;;;;;;;19.70;84.20;;;;;;5043893;28;75868;-78
2023/10/20 08:27:00;;;;;;;;;;;19.70;85.40;;;;;;5040945;28;79971;-77
2023/10/20 08:29:27;;;;;;;;;;;19.70;84.80;;;;;;5023699;28;76005;-76
2023/10/20 08:31:52;;;;;;;;;;;19.70;85.40;;;;;;5045964;27;76250;-77
2023/10/20 08:34:18;;;;;;;;;;;19.70;85.30;;;;;;5047117;27;74073;-78
2023/10/20 08:36:43;;;;;;;;;;;19.70;84.90;;;;;;5043576;28;77739;-80
2023/10/20 08:39:19;;;;;;;;;;;19.70;84.70;;;;;;5045560;27;74285;-80
2023/10/20 08:41:45;;;;;;;;;;;19.70;84.70;;;;;;5040179;28;76870;-79
2023/10/20 08:44:11;;;;;;;;;;;19.70;85.60;;;;;;5028673;28;76327;-80
2023/10/20 08:46:38;;;;;;;;;;;19.80;85.90;;;;;;5043109;27;77053;-80
2023/10/20 08:49:05;;;;;;;;;;;19.80;86.40;;;;;;5032997;28;78995;-78
2023/10/20 08:51:30;;;;;;;;;;;19.80;86.60;;;;;;5040092;27;74826;-77
2023/10/20 08:53:56;;;;;;;;;;;19.70;86.40;;;;;;5023730;28;77964;-78
2023/10/20 08:56:22;;;;;;;;;;;19.70;85.90;;;;;;5047313;27;76010;-78
2023/10/20 08:58:47;;;;;;;;;;;19.70;86.20;;;;;;5041555;27;76611;-77
2023/10/20 09:01:14;;;;;;;;;;;19.70;85.80;;;;;;5039820;28;75365;-77
2023/10/20 09:03:40;;;;;;;;;;;19.70;85.60;;;;;;5045688;27;73509;-77
2023/10/20 09:06:07;;;;;;;;;;;19.70;85.90;;;;;;5044745;27;81068;-78
2023/10/20 09:08:33;;;;;;;;;;;19.70;86.40;;;;;;5050267;28;76922;-76
2023/10/20 09:10:58;;;;;;;;;;;19.60;85.10;;;;;;5043460;27;73953;-77
2023/10/20 09:13:34;;;;;;;;;;;19.60;85.80;;;;;;5039083;27;74538;-77
2023/10/20 09:16:07;;;;;;;;;;;19.60;85.50;;;;;;5032420;28;78304;-77
2023/10/20 09:18:53;;;;;;;;;;;19.60;86.10;;;;;;5044616;27;74265;-77
2023/10/20 09:21:24;;;;;;;;;;;19.60;86.10;;;;;;5047002;27;75640;-78
2023/10/20 09:24:08;;;;;;;;;;;19.60;86.00;;;;;;5054339;27;79511;-78
2023/10/20 09:26:38;;;;;;;;;;;19.60;86.20;;;;;;5028209;28;75286;-78
2023/10/20 09:29:07;;;;;;;;;;;19.60;86.40;;;;;;5048310;27;80710;-77
2023/10/20 09:31:33;;;;;;;;;;;19.60;86.60;;;;;;5053223;27;76173;-77
2023/10/20 09:33:59;;;;;;;;;;;19.60;86.20;;;;;;5038707;27;75892;-78
2023/10/20 09:36:25;;;;;;;;;;;19.60;85.80;;;;;;5046108;27;75961;-78
2023/10/20 09:38:52;;;;;;;;;;;19.60;86.00;;;;;;5045109;27;78302;-77
2023/10/20 09:41:20;;;;;;;;;;;19.60;85.50;;;;;;5042108;27;75465;-78
2023/10/20 09:43:52;;;;;;;;;;;19.60;85.80;;;;;;5042495;27;75971;-77
2023/10/20 09:46:18;;;;;;;;;;;19.70;85.80;;;;;;5039498;27;77087;-77
2023/10/20 09:48:44;;;;;;;;;;;19.70;85.80;;;;;;5025007;28;78822;-78
2023/10/20 09:51:10;;;;;;;;;;;19.60;85.20;;;;;;5037962;27;78225;-78
2023/10/20 09:53:36;;;;;;;;;;;19.60;85.00;;;;;;5046893;27;73025;-78
2023/10/20 09:56:02;;;;;;;;;;;19.60;85.10;;;;;;5040488;27;71547;-78
2023/10/20 09:58:33;;;;;;;;;;;19.60;84.70;;;;;;5047736;28;76821;-78
2023/10/20 10:00:59;;;;;;;;;;;19.60;84.70;;;;;;5026825;28;74987;-78
2023/10/20 10:03:39;;;;;;;;;;;19.60;85.00;;;;;;5043931;27;78768;-78
2023/10/20 10:06:09;;;;;;;;;;;19.60;85.00;;;;;;5050625;27;74881;-78
2023/10/20 10:08:37;;;;;;;;;;;19.60;85.30;;;;;;5049711;27;75314;-78
2023/10/20 10:11:22;;;;;;;;;;;19.60;85.40;;;;;;5053134;27;73138;-78
2023/10/20 10:13:54;;;;;;;;;;;19.60;85.30;;;;;;5061245;27;78485;-78
2023/10/20 10:16:21;;;;;;;;;;;19.60;86.20;;;;;;5049499;28;75390;-79
2023/10/20 10:18:46;;;;;;;;;;;19.70;86.00;;;;;;5044698;28;78830;-77
2023/10/20 10:21:29;;;;;;;;;;;19.70;86.00;;;;;;5063851;27;74563;-84
2023/10/20 10:24:07;;;;;;;;;;;19.70;86.20;;;;;;5045682;27;75716;-87
2023/10/20 10:26:33;;;;;;;;;;;20.00;85.10;;;;;;5052481;22;76500;-38
2023/10/20 10:28:59;;;;;;;;;;;19.90;85.10;;;;;;5026484;27;74632;-39
2023/10/20 10:31:34;;;;;;;;;;;19.90;85.40;;;;;;5033183;27;76527;-38
2023/10/20 10:34:01;;;;;;;;;;;19.80;85.90;;;;;;5033401;27;73331;-39
2023/10/20 10:36:26;;;;;;;;;;;19.80;85.40;;;;;;5030743;27;75678;-39
2023/10/20 10:38:52;;;;;;;;;;;19.80;85.30;;;;;;5036590;28;80667;-38
2023/10/20 10:41:24;;;;;;;;;;;19.80;85.20;;;;;;5028226;27;74345;-38
2023/10/20 10:43:53;;;;;;;;;;;19.80;85.20;;;;;;5031050;27;73899;-37
2023/10/20 10:46:19;;;;;;;;;;;19.80;84.90;;;;;;5027187;27;74971;-38
2023/10/20 10:48:45;;;;;;;;;;;19.70;85.00;;;;;;5033259;27;75832;-39
2023/10/20 10:51:10;;;;;;;;;;;19.80;85.10;;;;;;5030696;28;77273;-38
2023/10/20 10:53:38;;;;;;;;;;;19.70;85.00;;;;;;5031652;27;76051;-38
2023/10/20 10:56:04;;;;;;;;;;;19.70;84.80;;;;;;5026411;27;76669;-38
2023/10/20 10:58:30;;;;;;;;;;;19.70;84.70;;;;;;5007277;28;75296;-39
2023/10/20 11:00:56;;;;;;;;;;;19.70;84.70;;;;;;5030309;27;75692;-38
2023/10/20 11:03:22;;;;;;;;;;;19.70;84.60;;;;;;5031798;27;82035;-38
2023/10/20 11:05:47;;;;;;;;;;;19.70;84.50;;;;;;5033677;28;78284;-42
2023/10/20 11:08:13;;;;;;;;;;;19.70;87.50;;;;;;5032405;27;76641;-42
2023/10/20 11:10:42;;;;;;;;;;;19.70;87.60;;;;;;5033956;27;76200;-41
2023/10/20 11:13:08;;;;;;;;;;;19.70;88.00;;;;;;5030444;27;81989;-45
2023/10/20 11:15:35;;;;;;;;;;;19.70;88.60;;;;;;5035045;27;74066;-44
2023/10/20 11:18:01;;;;;;;;;;;19.70;89.30;;;;;;5029264;28;76919;-42
2023/10/20 11:20:27;;;;;;;;;;;19.70;89.30;;;;;;5034047;27;73051;-44
2023/10/20 11:22:56;;;;;;;;;;;19.70;89.30;;;;;;5031054;27;77547;-43
2023/10/20 11:25:22;;;;;;;;;;;19.80;89.70;;;;;;5036269;27;76423;-42
2023/10/20 11:27:55;;;;;;;;;;;19.70;90.20;;;;;;5032269;27;82320;-43
2023/10/20 11:30:24;;;;;;;;;;;19.80;90.10;;;;;;5033149;28;71409;-42
2023/10/20 11:32:49;;;;;;;;;;;19.80;90.10;;;;;;5033727;27;74692;-42
2023/10/20 11:35:15;;;;;;;;;;;19.80;90.00;;;;;;5028277;27;74264;-41
2023/10/20 11:37:40;;;;;;;;;;;19.70;89.90;;;;;;5026843;27;79618;-42
2023/10/20 11:40:07;;;;;;;;;;;19.80;89.80;;;;;;5015688;27;80020;-44
2023/10/20 11:42:33;;;;;;;;;;;19.80;89.70;;;;;;5021619;27;77315;-42
2023/10/20 11:44:58;;;;;;;;;;;19.80;89.60;;;;;;5015213;27;80610;-41
2023/10/20 11:47:24;;;;;;;;;;;19.80;89.50;;;;;;5027453;27;80509;-43
2023/10/20 11:49:54;;;;;;;;;;;19.80;89.50;;;;;;5025049;27;77977;-43
2023/10/20 11:52:22;;;;;;;;;;;19.80;89.20;;;;;;5022018;27;80440;-43
2023/10/20 11:54:48;;;;;;;;;;;19.80;89.00;;;;;;5029602;27;75036;-44
2023/10/20 11:57:14;;;;;;;;;;;19.80;88.80;;;;;;5022230;28;77231;-42
2023/10/20 11:59:40;;;;;;;;;;;19.80;88.70;;;;;;5026132;27;76644;-43
2023/10/20 12:02:06;;;;;;;;;;;19.80;88.50;;;;;;5022972;27;81446;-39
2023/10/20 12:04:31;;;;;;;;;;;19.80;88.60;;;;;;5022985;27;77357;-39
2023/10/20 12:06:58;;;;;;;;;;;19.70;88.40;;;;;;5028425;27;78997;-39
2023/10/20 12:09:23;;;;;;;;;;;19.70;88.20;;;;;;5027523;27;74908;-38
2023/10/20 12:11:49;;;;;;;;;;;19.70;88.40;;;;;;5032185;27;77247;-39
2023/10/20 12:14:15;;;;;;;;;;;19.70;88.20;;;;;;5039951;27;73028;-38
2023/10/20 12:16:41;;;;;;;;;;;19.70;88.00;;;;;;5032070;27;77392;-39
2023/10/20 12:19:07;;;;;;;;;;;19.70;87.90;;;;;;5031247;27;76514;-39
2023/10/20 12:21:32;;;;;;;;;;;19.70;87.80;;;;;;5029690;27;77703;-39
2023/10/20 12:23:58;;;;;;;;;;;19.80;87.80;;;;;;5027526;27;76962;-39
2023/10/20 12:26:24;;;;;;;;;;;19.70;87.60;;;;;;5028031;27;79124;-38
2023/10/20 12:28:50;;;;;;;;;;;19.70;87.60;;;;;;5030580;27;74266;-38
2023/10/20 12:31:16;;;;;;;;;;;19.70;87.50;;;;;;5032562;27;73828;-38
2023/10/20 12:33:44;;;;;;;;;;;19.70;87.20;;;;;;5024787;27;74915;-39
2023/10/20 12:36:13;;;;;;;;;;;19.70;87.20;;;;;;5025657;28;76568;-39
2023/10/20 12:38:43;;;;;;;;;;;19.80;87.00;;;;;;5025723;27;72229;-38
2023/10/20 12:41:10;;;;;;;;;;;19.80;87.00;;;;;;5034852;27;77177;-38
2023/10/20 12:43:35;;;;;;;;;;;19.80;86.90;;;;;;5026152;27;77450;-39
2023/10/20 12:46:01;;;;;;;;;;;19.80;86.80;;;;;;5030039;27;76593;-39
2023/10/20 12:48:26;;;;;;;;;;;19.80;86.60;;;;;;5031562;28;78385;-39
2023/10/20 12:50:53;;;;;;;;;;;19.80;86.40;;;;;;5024366;27;75905;-39
2023/10/20 12:53:21;;;;;;;;;;;19.90;86.50;;;;;;5028958;27;74250;-38
2023/10/20 12:55:47;;;;;;;;;;;19.90;86.40;;;;;;5026773;27;74342;-38
2023/10/20 12:58:13;;;;;;;;;;;19.80;86.30;;;;;;5014182;28;76394;-39
2023/10/20 13:00:39;;;;;;;;;;;19.90;86.30;;;;;;5037951;28;76666;-39
2023/10/20 13:03:06;;;;;;;;;;;19.90;86.30;;;;;;5040744;27;77181;-39
2023/10/20 13:05:33;;;;;;;;;;;19.90;86.20;;;;;;5035581;27;74879;-39
2023/10/20 13:07:59;;;;;;;;;;;19.90;86.10;;;;;;5013375;28;76825;-39
2023/10/20 13:10:24;;;;;;;;;;;19.90;85.90;;;;;;5028113;27;74196;-39
2023/10/20 13:12:50;;;;;;;;;;;19.90;85.90;;;;;;5030879;27;75145;-38
2023/10/20 13:15:19;;;;;;;;;;;19.90;85.90;;;;;;5031419;27;77784;-38
2023/10/20 13:17:45;;;;;;;;;;;19.90;85.80;;;;;;5017431;27;79309;-39
2023/10/20 13:20:12;;;;;;;;;;;19.90;85.70;;;;;;5020316;27;71442;-39
2023/10/20 13:22:38;;;;;;;;;;;19.90;85.60;;;;;;5025574;27;74773;-38
2023/10/20 13:25:04;;;;;;;;;;;19.90;85.70;;;;;;5024911;27;76437;-39
2023/10/20 13:27:31;;;;;;;;;;;20.00;85.70;;;;;;5033142;28;77874;-39
2023/10/20 13:29:56;;;;;;;;;;;20.00;85.90;;;;;;5032240;27;74573;-41
2023/10/20 13:32:23;;;;;;;;;;;20.00;85.90;;;;;;5032071;27;74426;-47
2023/10/20 13:34:49;;;;;;;;;;;20.00;85.90;;;;;;5038773;27;74879;-47
2023/10/20 13:37:15;;;;;;;;;;;20.00;85.90;;;;;;5026782;27;76013;-47
2023/10/20 13:39:40;;;;;;;;;;;20.00;85.80;;;;;;5013102;28;77105;-47
2023/10/20 13:42:06;;;;;;;;;;;20.00;85.80;;;;;;5027638;27;72121;-46
2023/10/20 13:44:32;;;;;;;;;;;20.00;85.70;;;;;;5030191;27;77525;-47
2023/10/20 13:46:58;;;;;;;;;;;20.00;85.60;;;;;;5024660;27;78574;-47
2023/10/20 13:49:24;;;;;;;;;;;20.00;85.70;;;;;;5023155;27;73975;-47
2023/10/20 13:51:49;;;;;;;;;;;20.00;85.70;;;;;;5028754;27;74166;-46
2023/10/20 13:54:15;;;;;;;;;;;20.00;85.80;;;;;;5052663;22;76729;-76
2023/10/20 13:56:41;;;;;;;;;;;20.00;85.70;;;;;;5039320;27;73891;-75
2023/10/20 13:59:07;;;;;;;;;;;20.00;85.60;;;;;;5015594;27;75298;-74
2023/10/20 14:01:32;;;;;;;;;;;20.10;85.60;;;;;;5025772;27;74159;-75
2023/10/20 14:03:58;;;;;;;;;;;20.00;85.60;;;;;;5028958;27;83370;-74
2023/10/20 14:06:24;;;;;;;;;;;20.00;85.60;;;;;;5034346;27;74579;-74
2023/10/20 14:08:50;;;;;;;;;;;20.10;85.60;;;;;;5032913;27;75055;-73
2023/10/20 14:11:15;;;;;;;;;;;20.00;85.50;;;;;;5026652;28;71494;-73
2023/10/20 14:13:41;;;;;;;;;;;20.10;85.50;;;;;;5055579;27;76116;-74
2023/10/20 14:16:06;;;;;;;;;;;20.10;85.50;;;;;;5049711;27;73998;-73
2023/10/20 14:18:35;;;;;;;;;;;20.10;85.40;;;;;;5043613;27;78348;-73
2023/10/20 14:21:00;;;;;;;;;;;20.10;85.20;;;;;;5035637;27;73661;-74
2023/10/20 14:23:27;;;;;;;;;;;20.10;85.20;;;;;;5035777;27;75211;-74
2023/10/20 14:25:56;;;;;;;;;;;20.00;85.30;;;;;;5027081;27;76336;-73
2023/10/20 14:28:23;;;;;;;;;;;20.10;85.40;;;;;;5034155;27;74640;-72
2023/10/20 14:30:54;;;;;;;;;;;20.10;85.30;;;;;;5046515;27;76224;-74
2023/10/20 14:33:20;;;;;;;;;;;20.10;85.40;;;;;;5046934;27;74458;-73
2023/10/20 14:35:45;;;;;;;;;;;20.00;85.60;;;;;;5039615;27;76776;-74
2023/10/20 14:38:11;;;;;;;;;;;20.00;85.70;;;;;;5043021;27;75952;-72
2023/10/20 14:40:36;;;;;;;;;;;20.00;85.80;;;;;;5040614;27;75251;-72